<?xml version="1.0" encoding="UTF-8" standalone="no" ?>
<gpx xmlns="http://www.topografix.com/GPX/1/1" xmlns:xsi="http://www.w3.org/2001/XMLSchema-instance" xsi:schemaLocation="http://www.topografix.com/GPX/1/1 http://www.topografix.com/GPX/1/1/gpx.xsd" version="1.1" creator="VisuGPX - https://www.visugpx.com">
  <metadata>
    <name>La Chapelle Saint Pancrace Digne</name>
    <desc><![CDATA[La chapelle Saint Pancrace à Digne-les-bains]]></desc>
  </metadata>
  <wpt lat="44.08056" lon="6.27086">
    <ele>761</ele>
    <name><![CDATA[Pause à 18/08/2014 à 11:47]]></name>
    <desc><![CDATA[Pause de 2min 27s]]></desc>
  </wpt>
  <wpt lat="44.08087" lon="6.27017">
    <ele>755</ele>
    <name><![CDATA[Pause à 18/08/2014 à 11:49]]></name>
    <desc><![CDATA[Pause de 4min 5s]]></desc>
  </wpt>
  <wpt lat="44.08083" lon="6.26826">
    <ele>754</ele>
    <name><![CDATA[Pause à 18/08/2014 à 11:55]]></name>
    <desc><![CDATA[Pause de 3min 17s]]></desc>
  </wpt>
  <wpt lat="44.08154" lon="6.2651">
    <ele>780</ele>
    <name><![CDATA[Pause à 18/08/2014 à 12:04]]></name>
    <desc><![CDATA[Pause de 2min 15s]]></desc>
  </wpt>
  <wpt lat="44.08163" lon="6.26441">
    <ele>793</ele>
    <name><![CDATA[Pause à 18/08/2014 à 12:06]]></name>
    <desc><![CDATA[Pause de 2min 38s]]></desc>
  </wpt>
  <wpt lat="44.08184" lon="6.2637">
    <ele>805</ele>
    <name><![CDATA[Pause à 18/08/2014 à 12:09]]></name>
    <desc><![CDATA[Pause de 4min 11s]]></desc>
  </wpt>
  <wpt lat="44.08368" lon="6.26174">
    <ele>838</ele>
    <name><![CDATA[Pause à 18/08/2014 à 12:18]]></name>
    <desc><![CDATA[Pause de 2min 59s]]></desc>
  </wpt>
  <wpt lat="44.08547" lon="6.25652">
    <ele>872</ele>
    <name><![CDATA[Pause à 18/08/2014 à 12:31]]></name>
  </wpt>
  <wpt lat="44.08388" lon="6.26097">
    <ele>845</ele>
    <name><![CDATA[Pause à 18/08/2014 à 14:17]]></name>
    <desc><![CDATA[Pause de 2min 9s]]></desc>
  </wpt>
  <wpt lat="44.08084" lon="6.26981">
    <ele>751</ele>
    <name><![CDATA[Pause à 18/08/2014 à 14:33]]></name>
    <desc><![CDATA[Pause de 6min 49s]]></desc>
  </wpt>
  <wpt lat="44.07845" lon="6.27236">
    <ele>738</ele>
    <name><![CDATA[Pause à 18/08/2014 à 14:44]]></name>
    <desc><![CDATA[Pause de 3min 9s]]></desc>
  </wpt>
  <wpt lat="44.07793" lon="6.27174">
    <ele>731</ele>
    <name><![CDATA[Pause à 18/08/2014 à 14:48]]></name>
    <desc><![CDATA[Pause de 3min 16s]]></desc>
  </wpt>
  <trk>
    <name><![CDATA[Panc]]></name>
    <trkseg>
      <trkpt lat="44.07854" lon="6.27237">
        <ele>745</ele>
        <time>2014-08-18T09:40:20Z</time>
      </trkpt>
      <trkpt lat="44.07858" lon="6.27232">
        <ele>745</ele>
        <time>2014-08-18T09:40:25Z</time>
      </trkpt>
      <trkpt lat="44.07861" lon="6.27227">
        <ele>744</ele>
        <time>2014-08-18T09:40:30Z</time>
      </trkpt>
      <trkpt lat="44.07866" lon="6.27225">
        <ele>744</ele>
        <time>2014-08-18T09:40:35Z</time>
      </trkpt>
      <trkpt lat="44.0787" lon="6.27221">
        <ele>746</ele>
        <time>2014-08-18T09:40:41Z</time>
      </trkpt>
      <trkpt lat="44.07873" lon="6.27216">
        <ele>749</ele>
        <time>2014-08-18T09:40:51Z</time>
      </trkpt>
      <trkpt lat="44.07877" lon="6.27212">
        <ele>751</ele>
        <time>2014-08-18T09:40:59Z</time>
      </trkpt>
      <trkpt lat="44.07881" lon="6.27209">
        <ele>752</ele>
        <time>2014-08-18T09:41:05Z</time>
      </trkpt>
      <trkpt lat="44.07886" lon="6.27206">
        <ele>752</ele>
        <time>2014-08-18T09:41:11Z</time>
      </trkpt>
      <trkpt lat="44.07891" lon="6.27205">
        <ele>754</ele>
        <time>2014-08-18T09:41:16Z</time>
      </trkpt>
      <trkpt lat="44.07896" lon="6.27203">
        <ele>754</ele>
        <time>2014-08-18T09:41:21Z</time>
      </trkpt>
      <trkpt lat="44.07901" lon="6.27202">
        <ele>754</ele>
        <time>2014-08-18T09:41:25Z</time>
      </trkpt>
      <trkpt lat="44.07906" lon="6.27202">
        <ele>751</ele>
        <time>2014-08-18T09:41:29Z</time>
      </trkpt>
      <trkpt lat="44.07911" lon="6.27203">
        <ele>750</ele>
        <time>2014-08-18T09:41:34Z</time>
      </trkpt>
      <trkpt lat="44.07916" lon="6.27202">
        <ele>751</ele>
        <time>2014-08-18T09:41:40Z</time>
      </trkpt>
      <trkpt lat="44.07921" lon="6.272">
        <ele>753</ele>
        <time>2014-08-18T09:41:46Z</time>
      </trkpt>
      <trkpt lat="44.07925" lon="6.27199">
        <ele>754</ele>
        <time>2014-08-18T09:41:51Z</time>
      </trkpt>
      <trkpt lat="44.0793" lon="6.27196">
        <ele>754</ele>
        <time>2014-08-18T09:41:56Z</time>
      </trkpt>
      <trkpt lat="44.07935" lon="6.27193">
        <ele>753</ele>
        <time>2014-08-18T09:42:02Z</time>
      </trkpt>
      <trkpt lat="44.07939" lon="6.27189">
        <ele>753</ele>
        <time>2014-08-18T09:42:07Z</time>
      </trkpt>
      <trkpt lat="44.07943" lon="6.27185">
        <ele>753</ele>
        <time>2014-08-18T09:42:12Z</time>
      </trkpt>
      <trkpt lat="44.07949" lon="6.27183">
        <ele>754</ele>
        <time>2014-08-18T09:42:17Z</time>
      </trkpt>
      <trkpt lat="44.07954" lon="6.27182">
        <ele>754</ele>
        <time>2014-08-18T09:42:20Z</time>
      </trkpt>
      <trkpt lat="44.07958" lon="6.27179">
        <ele>759</ele>
        <time>2014-08-18T09:42:25Z</time>
      </trkpt>
      <trkpt lat="44.07962" lon="6.27177">
        <ele>763</ele>
        <time>2014-08-18T09:42:30Z</time>
      </trkpt>
      <trkpt lat="44.07966" lon="6.27175">
        <ele>762</ele>
        <time>2014-08-18T09:42:46Z</time>
      </trkpt>
      <trkpt lat="44.07967" lon="6.27175">
        <ele>762</ele>
        <time>2014-08-18T09:42:47Z</time>
      </trkpt>
      <trkpt lat="44.07971" lon="6.27171">
        <ele>760</ele>
        <time>2014-08-18T09:42:51Z</time>
      </trkpt>
      <trkpt lat="44.07974" lon="6.27166">
        <ele>759</ele>
        <time>2014-08-18T09:42:55Z</time>
      </trkpt>
      <trkpt lat="44.07979" lon="6.27165">
        <ele>759</ele>
        <time>2014-08-18T09:42:59Z</time>
      </trkpt>
      <trkpt lat="44.07984" lon="6.27163">
        <ele>758</ele>
        <time>2014-08-18T09:43:04Z</time>
      </trkpt>
      <trkpt lat="44.07987" lon="6.27158">
        <ele>759</ele>
        <time>2014-08-18T09:43:09Z</time>
      </trkpt>
      <trkpt lat="44.07992" lon="6.27157">
        <ele>759</ele>
        <time>2014-08-18T09:43:14Z</time>
      </trkpt>
      <trkpt lat="44.07998" lon="6.27157">
        <ele>756</ele>
        <time>2014-08-18T09:43:19Z</time>
      </trkpt>
      <trkpt lat="44.08003" lon="6.27157">
        <ele>756</ele>
        <time>2014-08-18T09:43:24Z</time>
      </trkpt>
      <trkpt lat="44.08007" lon="6.27153">
        <ele>758</ele>
        <time>2014-08-18T09:43:28Z</time>
      </trkpt>
      <trkpt lat="44.08011" lon="6.27149">
        <ele>756</ele>
        <time>2014-08-18T09:43:33Z</time>
      </trkpt>
      <trkpt lat="44.08015" lon="6.27146">
        <ele>757</ele>
        <time>2014-08-18T09:43:49Z</time>
      </trkpt>
      <trkpt lat="44.08046" lon="6.27106">
        <ele>755</ele>
        <time>2014-08-18T09:44:22Z</time>
      </trkpt>
      <trkpt lat="44.08044" lon="6.27113">
        <ele>755</ele>
        <time>2014-08-18T09:44:25Z</time>
      </trkpt>
      <trkpt lat="44.08042" lon="6.27115">
        <ele>761</ele>
        <time>2014-08-18T09:44:45Z</time>
      </trkpt>
      <trkpt lat="44.08043" lon="6.27106">
        <ele>760</ele>
        <time>2014-08-18T09:44:53Z</time>
      </trkpt>
      <trkpt lat="44.08046" lon="6.27101">
        <ele>761</ele>
        <time>2014-08-18T09:44:58Z</time>
      </trkpt>
      <trkpt lat="44.0805" lon="6.27097">
        <ele>762</ele>
        <time>2014-08-18T09:45:03Z</time>
      </trkpt>
      <trkpt lat="44.08052" lon="6.27091">
        <ele>764</ele>
        <time>2014-08-18T09:45:07Z</time>
      </trkpt>
      <trkpt lat="44.08056" lon="6.27086">
        <ele>761</ele>
        <time>2014-08-18T09:45:12Z</time>
      </trkpt>
      <trkpt lat="44.08061" lon="6.2708">
        <ele>759</ele>
        <time>2014-08-18T09:45:19Z</time>
      </trkpt>
      <trkpt lat="44.08064" lon="6.27075">
        <ele>756</ele>
        <time>2014-08-18T09:45:25Z</time>
      </trkpt>
      <trkpt lat="44.08066" lon="6.27067">
        <ele>759</ele>
        <time>2014-08-18T09:45:29Z</time>
      </trkpt>
      <trkpt lat="44.08069" lon="6.27061">
        <ele>759</ele>
        <time>2014-08-18T09:45:33Z</time>
      </trkpt>
      <trkpt lat="44.08072" lon="6.27056">
        <ele>759</ele>
        <time>2014-08-18T09:45:37Z</time>
      </trkpt>
      <trkpt lat="44.08076" lon="6.27051">
        <ele>759</ele>
        <time>2014-08-18T09:45:42Z</time>
      </trkpt>
      <trkpt lat="44.0808" lon="6.27047">
        <ele>759</ele>
        <time>2014-08-18T09:46:01Z</time>
      </trkpt>
      <trkpt lat="44.08082" lon="6.27042">
        <ele>762</ele>
        <time>2014-08-18T09:46:20Z</time>
      </trkpt>
      <trkpt lat="44.0808" lon="6.27034">
        <ele>763</ele>
        <time>2014-08-18T09:46:25Z</time>
      </trkpt>
      <trkpt lat="44.08085" lon="6.27033">
        <ele>761</ele>
        <time>2014-08-18T09:46:37Z</time>
      </trkpt>
      <trkpt lat="44.08095" lon="6.27048">
        <ele>760</ele>
        <time>2014-08-18T09:46:38Z</time>
      </trkpt>
      <trkpt lat="44.08102" lon="6.27055">
        <ele>759</ele>
        <time>2014-08-18T09:46:39Z</time>
      </trkpt>
      <trkpt lat="44.08114" lon="6.27053">
        <ele>760</ele>
        <time>2014-08-18T09:46:40Z</time>
      </trkpt>
      <trkpt lat="44.08114" lon="6.27043">
        <ele>760</ele>
        <time>2014-08-18T09:46:41Z</time>
      </trkpt>
      <trkpt lat="44.08106" lon="6.2704">
        <ele>759</ele>
        <time>2014-08-18T09:46:42Z</time>
      </trkpt>
      <trkpt lat="44.08095" lon="6.27038">
        <ele>757</ele>
        <time>2014-08-18T09:46:43Z</time>
      </trkpt>
      <trkpt lat="44.08089" lon="6.27036">
        <ele>757</ele>
        <time>2014-08-18T09:46:46Z</time>
      </trkpt>
      <trkpt lat="44.08085" lon="6.27034">
        <ele>758</ele>
        <time>2014-08-18T09:46:58Z</time>
      </trkpt>
      <trkpt lat="44.08085" lon="6.27043">
        <ele>761</ele>
        <time>2014-08-18T09:47:05Z</time>
      </trkpt>
      <trkpt lat="44.08084" lon="6.2703">
        <ele>759</ele>
        <time>2014-08-18T09:47:39Z</time>
      </trkpt>
      <trkpt lat="44.08085" lon="6.27023">
        <ele>756</ele>
        <time>2014-08-18T09:47:42Z</time>
      </trkpt>
      <trkpt lat="44.08087" lon="6.27017">
        <ele>755</ele>
        <time>2014-08-18T09:47:46Z</time>
      </trkpt>
      <trkpt lat="44.08087" lon="6.27023">
        <ele>755</ele>
        <time>2014-08-18T09:47:53Z</time>
      </trkpt>
      <trkpt lat="44.08087" lon="6.27031">
        <ele>756</ele>
        <time>2014-08-18T09:48:01Z</time>
      </trkpt>
      <trkpt lat="44.08083" lon="6.27034">
        <ele>755</ele>
        <time>2014-08-18T09:48:24Z</time>
      </trkpt>
      <trkpt lat="44.08079" lon="6.27036">
        <ele>755</ele>
        <time>2014-08-18T09:48:30Z</time>
      </trkpt>
      <trkpt lat="44.0808" lon="6.27033">
        <ele>756</ele>
        <time>2014-08-18T09:48:46Z</time>
      </trkpt>
      <trkpt lat="44.08082" lon="6.27031">
        <ele>757</ele>
        <time>2014-08-18T09:49:27Z</time>
      </trkpt>
      <trkpt lat="44.08084" lon="6.2695">
        <ele>758</ele>
        <time>2014-08-18T09:51:51Z</time>
      </trkpt>
      <trkpt lat="44.08083" lon="6.26943">
        <ele>753</ele>
        <time>2014-08-18T09:51:57Z</time>
      </trkpt>
      <trkpt lat="44.08084" lon="6.26935">
        <ele>755</ele>
        <time>2014-08-18T09:52:05Z</time>
      </trkpt>
      <trkpt lat="44.08084" lon="6.26928">
        <ele>755</ele>
        <time>2014-08-18T09:52:11Z</time>
      </trkpt>
      <trkpt lat="44.08085" lon="6.26922">
        <ele>760</ele>
        <time>2014-08-18T09:52:18Z</time>
      </trkpt>
      <trkpt lat="44.08085" lon="6.26915">
        <ele>761</ele>
        <time>2014-08-18T09:52:28Z</time>
      </trkpt>
      <trkpt lat="44.08083" lon="6.26908">
        <ele>760</ele>
        <time>2014-08-18T09:52:34Z</time>
      </trkpt>
      <trkpt lat="44.08084" lon="6.26901">
        <ele>762</ele>
        <time>2014-08-18T09:52:39Z</time>
      </trkpt>
      <trkpt lat="44.08085" lon="6.26893">
        <ele>762</ele>
        <time>2014-08-18T09:52:46Z</time>
      </trkpt>
      <trkpt lat="44.08086" lon="6.26887">
        <ele>761</ele>
        <time>2014-08-18T09:52:53Z</time>
      </trkpt>
      <trkpt lat="44.08087" lon="6.2688">
        <ele>760</ele>
        <time>2014-08-18T09:52:59Z</time>
      </trkpt>
      <trkpt lat="44.08087" lon="6.26873">
        <ele>759</ele>
        <time>2014-08-18T09:53:04Z</time>
      </trkpt>
      <trkpt lat="44.08087" lon="6.26866">
        <ele>758</ele>
        <time>2014-08-18T09:53:09Z</time>
      </trkpt>
      <trkpt lat="44.08086" lon="6.26859">
        <ele>754</ele>
        <time>2014-08-18T09:53:15Z</time>
      </trkpt>
      <trkpt lat="44.08085" lon="6.26852">
        <ele>755</ele>
        <time>2014-08-18T09:53:22Z</time>
      </trkpt>
      <trkpt lat="44.08085" lon="6.26845">
        <ele>755</ele>
        <time>2014-08-18T09:53:29Z</time>
      </trkpt>
      <trkpt lat="44.08085" lon="6.26838">
        <ele>755</ele>
        <time>2014-08-18T09:53:36Z</time>
      </trkpt>
      <trkpt lat="44.08083" lon="6.26832">
        <ele>755</ele>
        <time>2014-08-18T09:53:42Z</time>
      </trkpt>
      <trkpt lat="44.08083" lon="6.26826">
        <ele>754</ele>
        <time>2014-08-18T09:53:49Z</time>
      </trkpt>
      <trkpt lat="44.08084" lon="6.26779">
        <ele>753</ele>
        <time>2014-08-18T09:54:23Z</time>
      </trkpt>
      <trkpt lat="44.08089" lon="6.26781">
        <ele>759</ele>
        <time>2014-08-18T09:54:27Z</time>
      </trkpt>
      <trkpt lat="44.08091" lon="6.26786">
        <ele>758</ele>
        <time>2014-08-18T09:54:53Z</time>
      </trkpt>
      <trkpt lat="44.08091" lon="6.26786">
        <ele>760</ele>
        <time>2014-08-18T09:55:23Z</time>
      </trkpt>
      <trkpt lat="44.08102" lon="6.26769">
        <ele>751</ele>
        <time>2014-08-18T09:57:06Z</time>
      </trkpt>
      <trkpt lat="44.08104" lon="6.26763">
        <ele>751</ele>
        <time>2014-08-18T09:57:11Z</time>
      </trkpt>
      <trkpt lat="44.08108" lon="6.26758">
        <ele>750</ele>
        <time>2014-08-18T09:57:17Z</time>
      </trkpt>
      <trkpt lat="44.08111" lon="6.26753">
        <ele>749</ele>
        <time>2014-08-18T09:57:23Z</time>
      </trkpt>
      <trkpt lat="44.08113" lon="6.26747">
        <ele>749</ele>
        <time>2014-08-18T09:57:29Z</time>
      </trkpt>
      <trkpt lat="44.08114" lon="6.26741">
        <ele>749</ele>
        <time>2014-08-18T09:57:45Z</time>
      </trkpt>
      <trkpt lat="44.08118" lon="6.26737">
        <ele>746</ele>
        <time>2014-08-18T09:57:52Z</time>
      </trkpt>
      <trkpt lat="44.08119" lon="6.2673">
        <ele>746</ele>
        <time>2014-08-18T09:58:05Z</time>
      </trkpt>
      <trkpt lat="44.08122" lon="6.26724">
        <ele>748</ele>
        <time>2014-08-18T09:58:10Z</time>
      </trkpt>
      <trkpt lat="44.08123" lon="6.26718">
        <ele>750</ele>
        <time>2014-08-18T09:58:13Z</time>
      </trkpt>
      <trkpt lat="44.08124" lon="6.26711">
        <ele>753</ele>
        <time>2014-08-18T09:58:18Z</time>
      </trkpt>
      <trkpt lat="44.08127" lon="6.26706">
        <ele>752</ele>
        <time>2014-08-18T09:58:22Z</time>
      </trkpt>
      <trkpt lat="44.08128" lon="6.26698">
        <ele>752</ele>
        <time>2014-08-18T09:58:29Z</time>
      </trkpt>
      <trkpt lat="44.08129" lon="6.26691">
        <ele>755</ele>
        <time>2014-08-18T09:58:33Z</time>
      </trkpt>
      <trkpt lat="44.0813" lon="6.26683">
        <ele>760</ele>
        <time>2014-08-18T09:58:38Z</time>
      </trkpt>
      <trkpt lat="44.08133" lon="6.26676">
        <ele>760</ele>
        <time>2014-08-18T09:58:43Z</time>
      </trkpt>
      <trkpt lat="44.08135" lon="6.2667">
        <ele>762</ele>
        <time>2014-08-18T09:58:49Z</time>
      </trkpt>
      <trkpt lat="44.08137" lon="6.26664">
        <ele>759</ele>
        <time>2014-08-18T09:58:53Z</time>
      </trkpt>
      <trkpt lat="44.08139" lon="6.26659">
        <ele>759</ele>
        <time>2014-08-18T09:58:58Z</time>
      </trkpt>
      <trkpt lat="44.08141" lon="6.26652">
        <ele>759</ele>
        <time>2014-08-18T09:59:04Z</time>
      </trkpt>
      <trkpt lat="44.08141" lon="6.26646">
        <ele>758</ele>
        <time>2014-08-18T09:59:12Z</time>
      </trkpt>
      <trkpt lat="44.08141" lon="6.26639">
        <ele>759</ele>
        <time>2014-08-18T09:59:19Z</time>
      </trkpt>
      <trkpt lat="44.08141" lon="6.26633">
        <ele>759</ele>
        <time>2014-08-18T09:59:23Z</time>
      </trkpt>
      <trkpt lat="44.08141" lon="6.26626">
        <ele>759</ele>
        <time>2014-08-18T09:59:29Z</time>
      </trkpt>
      <trkpt lat="44.08141" lon="6.26619">
        <ele>760</ele>
        <time>2014-08-18T09:59:34Z</time>
      </trkpt>
      <trkpt lat="44.08142" lon="6.26612">
        <ele>760</ele>
        <time>2014-08-18T09:59:39Z</time>
      </trkpt>
      <trkpt lat="44.08144" lon="6.26606">
        <ele>761</ele>
        <time>2014-08-18T09:59:44Z</time>
      </trkpt>
      <trkpt lat="44.08146" lon="6.266">
        <ele>763</ele>
        <time>2014-08-18T09:59:52Z</time>
      </trkpt>
      <trkpt lat="44.08148" lon="6.26594">
        <ele>762</ele>
        <time>2014-08-18T09:59:56Z</time>
      </trkpt>
      <trkpt lat="44.08151" lon="6.26589">
        <ele>762</ele>
        <time>2014-08-18T10:00:02Z</time>
      </trkpt>
      <trkpt lat="44.08152" lon="6.26581">
        <ele>767</ele>
        <time>2014-08-18T10:00:20Z</time>
      </trkpt>
      <trkpt lat="44.08149" lon="6.26576">
        <ele>767</ele>
        <time>2014-08-18T10:00:24Z</time>
      </trkpt>
      <trkpt lat="44.08147" lon="6.26571">
        <ele>768</ele>
        <time>2014-08-18T10:00:30Z</time>
      </trkpt>
      <trkpt lat="44.08149" lon="6.26549">
        <ele>783</ele>
        <time>2014-08-18T10:01:01Z</time>
      </trkpt>
      <trkpt lat="44.08151" lon="6.26542">
        <ele>775</ele>
        <time>2014-08-18T10:01:05Z</time>
      </trkpt>
      <trkpt lat="44.08153" lon="6.26536">
        <ele>775</ele>
        <time>2014-08-18T10:01:11Z</time>
      </trkpt>
      <trkpt lat="44.08153" lon="6.2653">
        <ele>775</ele>
        <time>2014-08-18T10:01:19Z</time>
      </trkpt>
      <trkpt lat="44.08154" lon="6.26523">
        <ele>778</ele>
        <time>2014-08-18T10:01:31Z</time>
      </trkpt>
      <trkpt lat="44.08154" lon="6.26517">
        <ele>779</ele>
        <time>2014-08-18T10:01:43Z</time>
      </trkpt>
      <trkpt lat="44.08154" lon="6.2651">
        <ele>780</ele>
        <time>2014-08-18T10:01:53Z</time>
      </trkpt>
      <trkpt lat="44.08155" lon="6.26504">
        <ele>781</ele>
        <time>2014-08-18T10:02:01Z</time>
      </trkpt>
      <trkpt lat="44.08155" lon="6.26497">
        <ele>782</ele>
        <time>2014-08-18T10:02:11Z</time>
      </trkpt>
      <trkpt lat="44.08155" lon="6.2649">
        <ele>785</ele>
        <time>2014-08-18T10:02:20Z</time>
      </trkpt>
      <trkpt lat="44.08155" lon="6.26484">
        <ele>785</ele>
        <time>2014-08-18T10:02:27Z</time>
      </trkpt>
      <trkpt lat="44.08155" lon="6.26478">
        <ele>786</ele>
        <time>2014-08-18T10:02:35Z</time>
      </trkpt>
      <trkpt lat="44.08156" lon="6.26471">
        <ele>789</ele>
        <time>2014-08-18T10:02:44Z</time>
      </trkpt>
      <trkpt lat="44.08156" lon="6.26464">
        <ele>789</ele>
        <time>2014-08-18T10:02:52Z</time>
      </trkpt>
      <trkpt lat="44.08158" lon="6.26459">
        <ele>790</ele>
        <time>2014-08-18T10:03:04Z</time>
      </trkpt>
      <trkpt lat="44.08158" lon="6.26457">
        <ele>790</ele>
        <time>2014-08-18T10:03:30Z</time>
      </trkpt>
      <trkpt lat="44.0816" lon="6.26446">
        <ele>791</ele>
        <time>2014-08-18T10:04:08Z</time>
      </trkpt>
      <trkpt lat="44.08163" lon="6.26441">
        <ele>793</ele>
        <time>2014-08-18T10:04:15Z</time>
      </trkpt>
      <trkpt lat="44.08165" lon="6.26435">
        <ele>794</ele>
        <time>2014-08-18T10:04:27Z</time>
      </trkpt>
      <trkpt lat="44.08167" lon="6.26428">
        <ele>796</ele>
        <time>2014-08-18T10:04:36Z</time>
      </trkpt>
      <trkpt lat="44.08168" lon="6.26422">
        <ele>796</ele>
        <time>2014-08-18T10:04:47Z</time>
      </trkpt>
      <trkpt lat="44.08168" lon="6.26415">
        <ele>798</ele>
        <time>2014-08-18T10:04:56Z</time>
      </trkpt>
      <trkpt lat="44.0817" lon="6.26409">
        <ele>799</ele>
        <time>2014-08-18T10:05:04Z</time>
      </trkpt>
      <trkpt lat="44.08172" lon="6.26403">
        <ele>799</ele>
        <time>2014-08-18T10:05:14Z</time>
      </trkpt>
      <trkpt lat="44.08172" lon="6.26397">
        <ele>801</ele>
        <time>2014-08-18T10:05:24Z</time>
      </trkpt>
      <trkpt lat="44.08172" lon="6.2639">
        <ele>802</ele>
        <time>2014-08-18T10:06:11Z</time>
      </trkpt>
      <trkpt lat="44.08179" lon="6.26381">
        <ele>807</ele>
        <time>2014-08-18T10:06:53Z</time>
      </trkpt>
      <trkpt lat="44.08182" lon="6.26376">
        <ele>805</ele>
        <time>2014-08-18T10:06:58Z</time>
      </trkpt>
      <trkpt lat="44.08184" lon="6.2637">
        <ele>805</ele>
        <time>2014-08-18T10:07:04Z</time>
      </trkpt>
      <trkpt lat="44.08184" lon="6.26364">
        <ele>808</ele>
        <time>2014-08-18T10:07:14Z</time>
      </trkpt>
      <trkpt lat="44.08184" lon="6.26356">
        <ele>807</ele>
        <time>2014-08-18T10:07:21Z</time>
      </trkpt>
      <trkpt lat="44.08184" lon="6.2635">
        <ele>813</ele>
        <time>2014-08-18T10:07:34Z</time>
      </trkpt>
      <trkpt lat="44.08186" lon="6.26344">
        <ele>813</ele>
        <time>2014-08-18T10:07:41Z</time>
      </trkpt>
      <trkpt lat="44.08188" lon="6.26338">
        <ele>814</ele>
        <time>2014-08-18T10:07:47Z</time>
      </trkpt>
      <trkpt lat="44.08189" lon="6.26331">
        <ele>816</ele>
        <time>2014-08-18T10:08:03Z</time>
      </trkpt>
      <trkpt lat="44.0819" lon="6.26324">
        <ele>817</ele>
        <time>2014-08-18T10:08:10Z</time>
      </trkpt>
      <trkpt lat="44.08193" lon="6.26318">
        <ele>818</ele>
        <time>2014-08-18T10:08:18Z</time>
      </trkpt>
      <trkpt lat="44.08196" lon="6.26313">
        <ele>819</ele>
        <time>2014-08-18T10:08:27Z</time>
      </trkpt>
      <trkpt lat="44.08196" lon="6.26311">
        <ele>819</ele>
        <time>2014-08-18T10:08:45Z</time>
      </trkpt>
      <trkpt lat="44.08199" lon="6.26311">
        <ele>819</ele>
        <time>2014-08-18T10:11:15Z</time>
      </trkpt>
      <trkpt lat="44.08199" lon="6.26311">
        <ele>816</ele>
        <time>2014-08-18T10:11:46Z</time>
      </trkpt>
      <trkpt lat="44.08199" lon="6.26311">
        <ele>816</ele>
        <time>2014-08-18T10:12:16Z</time>
      </trkpt>
      <trkpt lat="44.08201" lon="6.2631">
        <ele>817</ele>
        <time>2014-08-18T10:12:45Z</time>
      </trkpt>
      <trkpt lat="44.08204" lon="6.26306">
        <ele>814</ele>
        <time>2014-08-18T10:12:50Z</time>
      </trkpt>
      <trkpt lat="44.08209" lon="6.26302">
        <ele>816</ele>
        <time>2014-08-18T10:12:55Z</time>
      </trkpt>
      <trkpt lat="44.08213" lon="6.26299">
        <ele>816</ele>
        <time>2014-08-18T10:12:59Z</time>
      </trkpt>
      <trkpt lat="44.08219" lon="6.26297">
        <ele>816</ele>
        <time>2014-08-18T10:13:04Z</time>
      </trkpt>
      <trkpt lat="44.08223" lon="6.26296">
        <ele>810</ele>
        <time>2014-08-18T10:13:10Z</time>
      </trkpt>
      <trkpt lat="44.08228" lon="6.26294">
        <ele>812</ele>
        <time>2014-08-18T10:13:15Z</time>
      </trkpt>
      <trkpt lat="44.08234" lon="6.26292">
        <ele>812</ele>
        <time>2014-08-18T10:13:20Z</time>
      </trkpt>
      <trkpt lat="44.08238" lon="6.26291">
        <ele>810</ele>
        <time>2014-08-18T10:13:24Z</time>
      </trkpt>
      <trkpt lat="44.08243" lon="6.2629">
        <ele>809</ele>
        <time>2014-08-18T10:13:30Z</time>
      </trkpt>
      <trkpt lat="44.08248" lon="6.26289">
        <ele>809</ele>
        <time>2014-08-18T10:13:35Z</time>
      </trkpt>
      <trkpt lat="44.08252" lon="6.26287">
        <ele>809</ele>
        <time>2014-08-18T10:13:39Z</time>
      </trkpt>
      <trkpt lat="44.08257" lon="6.26284">
        <ele>812</ele>
        <time>2014-08-18T10:13:45Z</time>
      </trkpt>
      <trkpt lat="44.08262" lon="6.26281">
        <ele>813</ele>
        <time>2014-08-18T10:13:50Z</time>
      </trkpt>
      <trkpt lat="44.08266" lon="6.26281">
        <ele>813</ele>
        <time>2014-08-18T10:13:54Z</time>
      </trkpt>
      <trkpt lat="44.08271" lon="6.26278">
        <ele>812</ele>
        <time>2014-08-18T10:14:02Z</time>
      </trkpt>
      <trkpt lat="44.08275" lon="6.26273">
        <ele>813</ele>
        <time>2014-08-18T10:14:07Z</time>
      </trkpt>
      <trkpt lat="44.08279" lon="6.26269">
        <ele>809</ele>
        <time>2014-08-18T10:14:12Z</time>
      </trkpt>
      <trkpt lat="44.08284" lon="6.26267">
        <ele>810</ele>
        <time>2014-08-18T10:14:17Z</time>
      </trkpt>
      <trkpt lat="44.08288" lon="6.26263">
        <ele>812</ele>
        <time>2014-08-18T10:14:24Z</time>
      </trkpt>
      <trkpt lat="44.08291" lon="6.26257">
        <ele>812</ele>
        <time>2014-08-18T10:14:30Z</time>
      </trkpt>
      <trkpt lat="44.08294" lon="6.26253">
        <ele>814</ele>
        <time>2014-08-18T10:14:36Z</time>
      </trkpt>
      <trkpt lat="44.08297" lon="6.26247">
        <ele>814</ele>
        <time>2014-08-18T10:14:45Z</time>
      </trkpt>
      <trkpt lat="44.08301" lon="6.26243">
        <ele>815</ele>
        <time>2014-08-18T10:14:50Z</time>
      </trkpt>
      <trkpt lat="44.08304" lon="6.26238">
        <ele>817</ele>
        <time>2014-08-18T10:14:54Z</time>
      </trkpt>
      <trkpt lat="44.08308" lon="6.26234">
        <ele>819</ele>
        <time>2014-08-18T10:14:59Z</time>
      </trkpt>
      <trkpt lat="44.08313" lon="6.26229">
        <ele>822</ele>
        <time>2014-08-18T10:15:04Z</time>
      </trkpt>
      <trkpt lat="44.08317" lon="6.26226">
        <ele>822</ele>
        <time>2014-08-18T10:15:09Z</time>
      </trkpt>
      <trkpt lat="44.08321" lon="6.2622">
        <ele>823</ele>
        <time>2014-08-18T10:15:14Z</time>
      </trkpt>
      <trkpt lat="44.08326" lon="6.26216">
        <ele>824</ele>
        <time>2014-08-18T10:15:23Z</time>
      </trkpt>
      <trkpt lat="44.08329" lon="6.26212">
        <ele>823</ele>
        <time>2014-08-18T10:15:27Z</time>
      </trkpt>
      <trkpt lat="44.08332" lon="6.26208">
        <ele>824</ele>
        <time>2014-08-18T10:15:31Z</time>
      </trkpt>
      <trkpt lat="44.08354" lon="6.26178">
        <ele>842</ele>
        <time>2014-08-18T10:16:03Z</time>
      </trkpt>
      <trkpt lat="44.08359" lon="6.2618">
        <ele>839</ele>
        <time>2014-08-18T10:16:11Z</time>
      </trkpt>
      <trkpt lat="44.08364" lon="6.26178">
        <ele>838</ele>
        <time>2014-08-18T10:16:19Z</time>
      </trkpt>
      <trkpt lat="44.08368" lon="6.26174">
        <ele>838</ele>
        <time>2014-08-18T10:16:26Z</time>
      </trkpt>
      <trkpt lat="44.08372" lon="6.2617">
        <ele>838</ele>
        <time>2014-08-18T10:16:33Z</time>
      </trkpt>
      <trkpt lat="44.08375" lon="6.26165">
        <ele>840</ele>
        <time>2014-08-18T10:16:38Z</time>
      </trkpt>
      <trkpt lat="44.08379" lon="6.26161">
        <ele>841</ele>
        <time>2014-08-18T10:16:48Z</time>
      </trkpt>
      <trkpt lat="44.08382" lon="6.26156">
        <ele>840</ele>
        <time>2014-08-18T10:16:57Z</time>
      </trkpt>
      <trkpt lat="44.08386" lon="6.26153">
        <ele>840</ele>
        <time>2014-08-18T10:17:03Z</time>
      </trkpt>
      <trkpt lat="44.0839" lon="6.26151">
        <ele>838</ele>
        <time>2014-08-18T10:17:08Z</time>
      </trkpt>
      <trkpt lat="44.08394" lon="6.26145">
        <ele>838</ele>
        <time>2014-08-18T10:17:15Z</time>
      </trkpt>
      <trkpt lat="44.08396" lon="6.2614">
        <ele>839</ele>
        <time>2014-08-18T10:17:34Z</time>
      </trkpt>
      <trkpt lat="44.08396" lon="6.26136">
        <ele>840</ele>
        <time>2014-08-18T10:18:01Z</time>
      </trkpt>
      <trkpt lat="44.08398" lon="6.26125">
        <ele>839</ele>
        <time>2014-08-18T10:19:25Z</time>
      </trkpt>
      <trkpt lat="44.08397" lon="6.26118">
        <ele>840</ele>
        <time>2014-08-18T10:19:40Z</time>
      </trkpt>
      <trkpt lat="44.08395" lon="6.26113">
        <ele>839</ele>
        <time>2014-08-18T10:19:50Z</time>
      </trkpt>
      <trkpt lat="44.08393" lon="6.26107">
        <ele>840</ele>
        <time>2014-08-18T10:20:02Z</time>
      </trkpt>
      <trkpt lat="44.08391" lon="6.261">
        <ele>844</ele>
        <time>2014-08-18T10:20:23Z</time>
      </trkpt>
      <trkpt lat="44.08389" lon="6.26091">
        <ele>842</ele>
        <time>2014-08-18T10:20:26Z</time>
      </trkpt>
      <trkpt lat="44.08387" lon="6.26085">
        <ele>843</ele>
        <time>2014-08-18T10:20:32Z</time>
      </trkpt>
      <trkpt lat="44.08384" lon="6.26078">
        <ele>840</ele>
        <time>2014-08-18T10:21:04Z</time>
      </trkpt>
      <trkpt lat="44.08383" lon="6.26072">
        <ele>844</ele>
        <time>2014-08-18T10:21:07Z</time>
      </trkpt>
      <trkpt lat="44.08385" lon="6.26064">
        <ele>846</ele>
        <time>2014-08-18T10:21:09Z</time>
      </trkpt>
      <trkpt lat="44.08386" lon="6.26057">
        <ele>849</ele>
        <time>2014-08-18T10:21:11Z</time>
      </trkpt>
      <trkpt lat="44.08387" lon="6.26049">
        <ele>852</ele>
        <time>2014-08-18T10:21:14Z</time>
      </trkpt>
      <trkpt lat="44.08387" lon="6.26043">
        <ele>856</ele>
        <time>2014-08-18T10:21:17Z</time>
      </trkpt>
      <trkpt lat="44.08389" lon="6.26036">
        <ele>856</ele>
        <time>2014-08-18T10:21:21Z</time>
      </trkpt>
      <trkpt lat="44.08389" lon="6.26028">
        <ele>856</ele>
        <time>2014-08-18T10:21:25Z</time>
      </trkpt>
      <trkpt lat="44.0839" lon="6.26021">
        <ele>857</ele>
        <time>2014-08-18T10:21:39Z</time>
      </trkpt>
      <trkpt lat="44.08389" lon="6.26012">
        <ele>857</ele>
        <time>2014-08-18T10:21:42Z</time>
      </trkpt>
      <trkpt lat="44.08387" lon="6.26006">
        <ele>857</ele>
        <time>2014-08-18T10:21:46Z</time>
      </trkpt>
      <trkpt lat="44.08388" lon="6.26">
        <ele>856</ele>
        <time>2014-08-18T10:21:51Z</time>
      </trkpt>
      <trkpt lat="44.08387" lon="6.25993">
        <ele>854</ele>
        <time>2014-08-18T10:21:55Z</time>
      </trkpt>
      <trkpt lat="44.08386" lon="6.25987">
        <ele>855</ele>
        <time>2014-08-18T10:22:06Z</time>
      </trkpt>
      <trkpt lat="44.08386" lon="6.2598">
        <ele>855</ele>
        <time>2014-08-18T10:22:20Z</time>
      </trkpt>
      <trkpt lat="44.08387" lon="6.25973">
        <ele>853</ele>
        <time>2014-08-18T10:22:25Z</time>
      </trkpt>
      <trkpt lat="44.08388" lon="6.25967">
        <ele>854</ele>
        <time>2014-08-18T10:22:32Z</time>
      </trkpt>
      <trkpt lat="44.08389" lon="6.2596">
        <ele>855</ele>
        <time>2014-08-18T10:22:35Z</time>
      </trkpt>
      <trkpt lat="44.0839" lon="6.25951">
        <ele>854</ele>
        <time>2014-08-18T10:22:38Z</time>
      </trkpt>
      <trkpt lat="44.08392" lon="6.25944">
        <ele>855</ele>
        <time>2014-08-18T10:22:40Z</time>
      </trkpt>
      <trkpt lat="44.08394" lon="6.25937">
        <ele>856</ele>
        <time>2014-08-18T10:22:45Z</time>
      </trkpt>
      <trkpt lat="44.08397" lon="6.25932">
        <ele>858</ele>
        <time>2014-08-18T10:22:54Z</time>
      </trkpt>
      <trkpt lat="44.08396" lon="6.25926">
        <ele>858</ele>
        <time>2014-08-18T10:23:04Z</time>
      </trkpt>
      <trkpt lat="44.08397" lon="6.25918">
        <ele>858</ele>
        <time>2014-08-18T10:23:18Z</time>
      </trkpt>
      <trkpt lat="44.08397" lon="6.25912">
        <ele>860</ele>
        <time>2014-08-18T10:23:22Z</time>
      </trkpt>
      <trkpt lat="44.08395" lon="6.25906">
        <ele>857</ele>
        <time>2014-08-18T10:23:29Z</time>
      </trkpt>
      <trkpt lat="44.08397" lon="6.25901">
        <ele>858</ele>
        <time>2014-08-18T10:23:42Z</time>
      </trkpt>
      <trkpt lat="44.08399" lon="6.25895">
        <ele>859</ele>
        <time>2014-08-18T10:23:47Z</time>
      </trkpt>
      <trkpt lat="44.08403" lon="6.2589">
        <ele>858</ele>
        <time>2014-08-18T10:23:51Z</time>
      </trkpt>
      <trkpt lat="44.08405" lon="6.25884">
        <ele>860</ele>
        <time>2014-08-18T10:23:54Z</time>
      </trkpt>
      <trkpt lat="44.08406" lon="6.25878">
        <ele>859</ele>
        <time>2014-08-18T10:23:58Z</time>
      </trkpt>
      <trkpt lat="44.0841" lon="6.25873">
        <ele>860</ele>
        <time>2014-08-18T10:24:02Z</time>
      </trkpt>
      <trkpt lat="44.08413" lon="6.25867">
        <ele>859</ele>
        <time>2014-08-18T10:24:07Z</time>
      </trkpt>
      <trkpt lat="44.08416" lon="6.25861">
        <ele>859</ele>
        <time>2014-08-18T10:24:12Z</time>
      </trkpt>
      <trkpt lat="44.08419" lon="6.25856">
        <ele>860</ele>
        <time>2014-08-18T10:24:19Z</time>
      </trkpt>
      <trkpt lat="44.08423" lon="6.25852">
        <ele>862</ele>
        <time>2014-08-18T10:24:30Z</time>
      </trkpt>
      <trkpt lat="44.08426" lon="6.25846">
        <ele>863</ele>
        <time>2014-08-18T10:24:37Z</time>
      </trkpt>
      <trkpt lat="44.08427" lon="6.2584">
        <ele>861</ele>
        <time>2014-08-18T10:24:42Z</time>
      </trkpt>
      <trkpt lat="44.0843" lon="6.25835">
        <ele>860</ele>
        <time>2014-08-18T10:24:47Z</time>
      </trkpt>
      <trkpt lat="44.08432" lon="6.25829">
        <ele>858</ele>
        <time>2014-08-18T10:24:52Z</time>
      </trkpt>
      <trkpt lat="44.08434" lon="6.25823">
        <ele>858</ele>
        <time>2014-08-18T10:24:59Z</time>
      </trkpt>
      <trkpt lat="44.08437" lon="6.25818">
        <ele>858</ele>
        <time>2014-08-18T10:25:13Z</time>
      </trkpt>
      <trkpt lat="44.0844" lon="6.25812">
        <ele>860</ele>
        <time>2014-08-18T10:25:18Z</time>
      </trkpt>
      <trkpt lat="44.08445" lon="6.25809">
        <ele>863</ele>
        <time>2014-08-18T10:25:21Z</time>
      </trkpt>
      <trkpt lat="44.08448" lon="6.25804">
        <ele>861</ele>
        <time>2014-08-18T10:25:25Z</time>
      </trkpt>
      <trkpt lat="44.08448" lon="6.25797">
        <ele>858</ele>
        <time>2014-08-18T10:25:32Z</time>
      </trkpt>
      <trkpt lat="44.08478" lon="6.25757">
        <ele>849</ele>
        <time>2014-08-18T10:26:05Z</time>
      </trkpt>
      <trkpt lat="44.08483" lon="6.25757">
        <ele>860</ele>
        <time>2014-08-18T10:26:15Z</time>
      </trkpt>
      <trkpt lat="44.08488" lon="6.25755">
        <ele>863</ele>
        <time>2014-08-18T10:26:23Z</time>
      </trkpt>
      <trkpt lat="44.08493" lon="6.25752">
        <ele>864</ele>
        <time>2014-08-18T10:26:33Z</time>
      </trkpt>
      <trkpt lat="44.08496" lon="6.25748">
        <ele>866</ele>
        <time>2014-08-18T10:26:43Z</time>
      </trkpt>
      <trkpt lat="44.08499" lon="6.25742">
        <ele>869</ele>
        <time>2014-08-18T10:26:51Z</time>
      </trkpt>
      <trkpt lat="44.08501" lon="6.25737">
        <ele>871</ele>
        <time>2014-08-18T10:27:00Z</time>
      </trkpt>
      <trkpt lat="44.08502" lon="6.2573">
        <ele>872</ele>
        <time>2014-08-18T10:27:09Z</time>
      </trkpt>
      <trkpt lat="44.08505" lon="6.25725">
        <ele>873</ele>
        <time>2014-08-18T10:27:17Z</time>
      </trkpt>
      <trkpt lat="44.08507" lon="6.25719">
        <ele>873</ele>
        <time>2014-08-18T10:27:24Z</time>
      </trkpt>
      <trkpt lat="44.0851" lon="6.25713">
        <ele>872</ele>
        <time>2014-08-18T10:27:31Z</time>
      </trkpt>
      <trkpt lat="44.08513" lon="6.25709">
        <ele>873</ele>
        <time>2014-08-18T10:27:37Z</time>
      </trkpt>
      <trkpt lat="44.08517" lon="6.25705">
        <ele>875</ele>
        <time>2014-08-18T10:27:44Z</time>
      </trkpt>
      <trkpt lat="44.08521" lon="6.257">
        <ele>876</ele>
        <time>2014-08-18T10:27:53Z</time>
      </trkpt>
      <trkpt lat="44.08525" lon="6.25696">
        <ele>876</ele>
        <time>2014-08-18T10:27:57Z</time>
      </trkpt>
      <trkpt lat="44.08528" lon="6.25691">
        <ele>876</ele>
        <time>2014-08-18T10:28:03Z</time>
      </trkpt>
      <trkpt lat="44.08531" lon="6.25685">
        <ele>876</ele>
        <time>2014-08-18T10:28:10Z</time>
      </trkpt>
      <trkpt lat="44.08531" lon="6.25679">
        <ele>874</ele>
        <time>2014-08-18T10:28:15Z</time>
      </trkpt>
      <trkpt lat="44.08533" lon="6.25672">
        <ele>875</ele>
        <time>2014-08-18T10:28:21Z</time>
      </trkpt>
      <trkpt lat="44.08537" lon="6.25666">
        <ele>874</ele>
        <time>2014-08-18T10:28:28Z</time>
      </trkpt>
      <trkpt lat="44.08541" lon="6.25661">
        <ele>872</ele>
        <time>2014-08-18T10:28:33Z</time>
      </trkpt>
      <trkpt lat="44.08545" lon="6.25657">
        <ele>872</ele>
        <time>2014-08-18T10:28:37Z</time>
      </trkpt>
      <trkpt lat="44.08547" lon="6.25652">
        <ele>872</ele>
        <time>2014-08-18T10:28:45Z</time>
      </trkpt>
      <trkpt lat="44.08548" lon="6.25645">
        <ele>872</ele>
        <time>2014-08-18T10:29:14Z</time>
      </trkpt>
      <trkpt lat="44.08564" lon="6.25632">
        <ele>881</ele>
        <time>2014-08-18T12:07:26Z</time>
      </trkpt>
      <trkpt lat="44.08561" lon="6.25637">
        <ele>881</ele>
        <time>2014-08-18T12:07:32Z</time>
      </trkpt>
      <trkpt lat="44.08559" lon="6.25643">
        <ele>881</ele>
        <time>2014-08-18T12:07:38Z</time>
      </trkpt>
      <trkpt lat="44.08556" lon="6.25649">
        <ele>881</ele>
        <time>2014-08-18T12:07:43Z</time>
      </trkpt>
      <trkpt lat="44.08552" lon="6.25655">
        <ele>881</ele>
        <time>2014-08-18T12:07:47Z</time>
      </trkpt>
      <trkpt lat="44.08548" lon="6.25661">
        <ele>881</ele>
        <time>2014-08-18T12:07:55Z</time>
      </trkpt>
      <trkpt lat="44.08545" lon="6.25664">
        <ele>881</ele>
        <time>2014-08-18T12:07:59Z</time>
      </trkpt>
      <trkpt lat="44.08542" lon="6.25669">
        <ele>880</ele>
        <time>2014-08-18T12:08:05Z</time>
      </trkpt>
      <trkpt lat="44.08539" lon="6.25676">
        <ele>882</ele>
        <time>2014-08-18T12:08:15Z</time>
      </trkpt>
      <trkpt lat="44.08535" lon="6.25681">
        <ele>883</ele>
        <time>2014-08-18T12:08:22Z</time>
      </trkpt>
      <trkpt lat="44.08533" lon="6.25687">
        <ele>883</ele>
        <time>2014-08-18T12:08:26Z</time>
      </trkpt>
      <trkpt lat="44.08529" lon="6.25692">
        <ele>883</ele>
        <time>2014-08-18T12:08:30Z</time>
      </trkpt>
      <trkpt lat="44.08526" lon="6.25696">
        <ele>883</ele>
        <time>2014-08-18T12:08:33Z</time>
      </trkpt>
      <trkpt lat="44.08522" lon="6.25701">
        <ele>880</ele>
        <time>2014-08-18T12:08:39Z</time>
      </trkpt>
      <trkpt lat="44.08517" lon="6.25704">
        <ele>880</ele>
        <time>2014-08-18T12:08:44Z</time>
      </trkpt>
      <trkpt lat="44.08515" lon="6.25711">
        <ele>880</ele>
        <time>2014-08-18T12:08:59Z</time>
      </trkpt>
      <trkpt lat="44.08513" lon="6.25713">
        <ele>879</ele>
        <time>2014-08-18T12:09:31Z</time>
      </trkpt>
      <trkpt lat="44.08512" lon="6.25716">
        <ele>879</ele>
        <time>2014-08-18T12:09:37Z</time>
      </trkpt>
      <trkpt lat="44.08509" lon="6.25722">
        <ele>878</ele>
        <time>2014-08-18T12:09:42Z</time>
      </trkpt>
      <trkpt lat="44.08506" lon="6.25729">
        <ele>876</ele>
        <time>2014-08-18T12:09:47Z</time>
      </trkpt>
      <trkpt lat="44.08504" lon="6.25735">
        <ele>875</ele>
        <time>2014-08-18T12:09:51Z</time>
      </trkpt>
      <trkpt lat="44.08501" lon="6.25741">
        <ele>873</ele>
        <time>2014-08-18T12:09:56Z</time>
      </trkpt>
      <trkpt lat="44.085" lon="6.25747">
        <ele>874</ele>
        <time>2014-08-18T12:10:00Z</time>
      </trkpt>
      <trkpt lat="44.08498" lon="6.25753">
        <ele>872</ele>
        <time>2014-08-18T12:10:03Z</time>
      </trkpt>
      <trkpt lat="44.08496" lon="6.2576">
        <ele>872</ele>
        <time>2014-08-18T12:10:07Z</time>
      </trkpt>
      <trkpt lat="44.08493" lon="6.25765">
        <ele>871</ele>
        <time>2014-08-18T12:10:11Z</time>
      </trkpt>
      <trkpt lat="44.08489" lon="6.25771">
        <ele>876</ele>
        <time>2014-08-18T12:10:15Z</time>
      </trkpt>
      <trkpt lat="44.08486" lon="6.25775">
        <ele>875</ele>
        <time>2014-08-18T12:10:19Z</time>
      </trkpt>
      <trkpt lat="44.08481" lon="6.2578">
        <ele>872</ele>
        <time>2014-08-18T12:10:25Z</time>
      </trkpt>
      <trkpt lat="44.08476" lon="6.25784">
        <ele>869</ele>
        <time>2014-08-18T12:10:29Z</time>
      </trkpt>
      <trkpt lat="44.08471" lon="6.25786">
        <ele>867</ele>
        <time>2014-08-18T12:10:33Z</time>
      </trkpt>
      <trkpt lat="44.08467" lon="6.2579">
        <ele>866</ele>
        <time>2014-08-18T12:10:38Z</time>
      </trkpt>
      <trkpt lat="44.08463" lon="6.25794">
        <ele>867</ele>
        <time>2014-08-18T12:10:45Z</time>
      </trkpt>
      <trkpt lat="44.0846" lon="6.25798">
        <ele>865</ele>
        <time>2014-08-18T12:10:50Z</time>
      </trkpt>
      <trkpt lat="44.08456" lon="6.25803">
        <ele>865</ele>
        <time>2014-08-18T12:10:54Z</time>
      </trkpt>
      <trkpt lat="44.08453" lon="6.25808">
        <ele>865</ele>
        <time>2014-08-18T12:10:58Z</time>
      </trkpt>
      <trkpt lat="44.0845" lon="6.25813">
        <ele>864</ele>
        <time>2014-08-18T12:11:04Z</time>
      </trkpt>
      <trkpt lat="44.08446" lon="6.25818">
        <ele>861</ele>
        <time>2014-08-18T12:11:11Z</time>
      </trkpt>
      <trkpt lat="44.08442" lon="6.25822">
        <ele>859</ele>
        <time>2014-08-18T12:11:15Z</time>
      </trkpt>
      <trkpt lat="44.08437" lon="6.25827">
        <ele>859</ele>
        <time>2014-08-18T12:11:19Z</time>
      </trkpt>
      <trkpt lat="44.08435" lon="6.25832">
        <ele>860</ele>
        <time>2014-08-18T12:11:24Z</time>
      </trkpt>
      <trkpt lat="44.08432" lon="6.25838">
        <ele>860</ele>
        <time>2014-08-18T12:11:29Z</time>
      </trkpt>
      <trkpt lat="44.08429" lon="6.25844">
        <ele>861</ele>
        <time>2014-08-18T12:11:35Z</time>
      </trkpt>
      <trkpt lat="44.08427" lon="6.25849">
        <ele>862</ele>
        <time>2014-08-18T12:11:48Z</time>
      </trkpt>
      <trkpt lat="44.08403" lon="6.25868">
        <ele>868</ele>
        <time>2014-08-18T12:12:20Z</time>
      </trkpt>
      <trkpt lat="44.08402" lon="6.25876">
        <ele>862</ele>
        <time>2014-08-18T12:12:23Z</time>
      </trkpt>
      <trkpt lat="44.08402" lon="6.25884">
        <ele>864</ele>
        <time>2014-08-18T12:12:26Z</time>
      </trkpt>
      <trkpt lat="44.08399" lon="6.2589">
        <ele>858</ele>
        <time>2014-08-18T12:12:30Z</time>
      </trkpt>
      <trkpt lat="44.08395" lon="6.25895">
        <ele>859</ele>
        <time>2014-08-18T12:12:36Z</time>
      </trkpt>
      <trkpt lat="44.08395" lon="6.25902">
        <ele>859</ele>
        <time>2014-08-18T12:12:43Z</time>
      </trkpt>
      <trkpt lat="44.08394" lon="6.25909">
        <ele>860</ele>
        <time>2014-08-18T12:12:47Z</time>
      </trkpt>
      <trkpt lat="44.08394" lon="6.25916">
        <ele>857</ele>
        <time>2014-08-18T12:12:57Z</time>
      </trkpt>
      <trkpt lat="44.08393" lon="6.25923">
        <ele>855</ele>
        <time>2014-08-18T12:13:02Z</time>
      </trkpt>
      <trkpt lat="44.08392" lon="6.25931">
        <ele>855</ele>
        <time>2014-08-18T12:13:07Z</time>
      </trkpt>
      <trkpt lat="44.08391" lon="6.25938">
        <ele>856</ele>
        <time>2014-08-18T12:13:11Z</time>
      </trkpt>
      <trkpt lat="44.0839" lon="6.25944">
        <ele>856</ele>
        <time>2014-08-18T12:13:15Z</time>
      </trkpt>
      <trkpt lat="44.08387" lon="6.25951">
        <ele>854</ele>
        <time>2014-08-18T12:13:20Z</time>
      </trkpt>
      <trkpt lat="44.08385" lon="6.25958">
        <ele>855</ele>
        <time>2014-08-18T12:13:26Z</time>
      </trkpt>
      <trkpt lat="44.08383" lon="6.25964">
        <ele>855</ele>
        <time>2014-08-18T12:13:29Z</time>
      </trkpt>
      <trkpt lat="44.0838" lon="6.2597">
        <ele>854</ele>
        <time>2014-08-18T12:13:32Z</time>
      </trkpt>
      <trkpt lat="44.08379" lon="6.25977">
        <ele>854</ele>
        <time>2014-08-18T12:13:36Z</time>
      </trkpt>
      <trkpt lat="44.08379" lon="6.25984">
        <ele>855</ele>
        <time>2014-08-18T12:13:40Z</time>
      </trkpt>
      <trkpt lat="44.08381" lon="6.2599">
        <ele>854</ele>
        <time>2014-08-18T12:13:44Z</time>
      </trkpt>
      <trkpt lat="44.0838" lon="6.25997">
        <ele>854</ele>
        <time>2014-08-18T12:13:50Z</time>
      </trkpt>
      <trkpt lat="44.0838" lon="6.26004">
        <ele>855</ele>
        <time>2014-08-18T12:13:56Z</time>
      </trkpt>
      <trkpt lat="44.08381" lon="6.2601">
        <ele>853</ele>
        <time>2014-08-18T12:14:12Z</time>
      </trkpt>
      <trkpt lat="44.08381" lon="6.26017">
        <ele>852</ele>
        <time>2014-08-18T12:14:17Z</time>
      </trkpt>
      <trkpt lat="44.08382" lon="6.26023">
        <ele>852</ele>
        <time>2014-08-18T12:14:20Z</time>
      </trkpt>
      <trkpt lat="44.08382" lon="6.2603">
        <ele>851</ele>
        <time>2014-08-18T12:14:23Z</time>
      </trkpt>
      <trkpt lat="44.08383" lon="6.26038">
        <ele>849</ele>
        <time>2014-08-18T12:14:27Z</time>
      </trkpt>
      <trkpt lat="44.08383" lon="6.26045">
        <ele>848</ele>
        <time>2014-08-18T12:14:31Z</time>
      </trkpt>
      <trkpt lat="44.08382" lon="6.26053">
        <ele>847</ele>
        <time>2014-08-18T12:14:36Z</time>
      </trkpt>
      <trkpt lat="44.08382" lon="6.26059">
        <ele>847</ele>
        <time>2014-08-18T12:14:41Z</time>
      </trkpt>
      <trkpt lat="44.08382" lon="6.26066">
        <ele>848</ele>
        <time>2014-08-18T12:14:46Z</time>
      </trkpt>
      <trkpt lat="44.08381" lon="6.26073">
        <ele>849</ele>
        <time>2014-08-18T12:14:49Z</time>
      </trkpt>
      <trkpt lat="44.08381" lon="6.26079">
        <ele>849</ele>
        <time>2014-08-18T12:14:53Z</time>
      </trkpt>
      <trkpt lat="44.08383" lon="6.26086">
        <ele>849</ele>
        <time>2014-08-18T12:15:01Z</time>
      </trkpt>
      <trkpt lat="44.08385" lon="6.26091">
        <ele>848</ele>
        <time>2014-08-18T12:15:14Z</time>
      </trkpt>
      <trkpt lat="44.08388" lon="6.26097">
        <ele>845</ele>
        <time>2014-08-18T12:15:22Z</time>
      </trkpt>
      <trkpt lat="44.0839" lon="6.26104">
        <ele>845</ele>
        <time>2014-08-18T12:15:26Z</time>
      </trkpt>
      <trkpt lat="44.08391" lon="6.2611">
        <ele>845</ele>
        <time>2014-08-18T12:15:32Z</time>
      </trkpt>
      <trkpt lat="44.08392" lon="6.26116">
        <ele>845</ele>
        <time>2014-08-18T12:15:45Z</time>
      </trkpt>
      <trkpt lat="44.08394" lon="6.26123">
        <ele>845</ele>
        <time>2014-08-18T12:15:49Z</time>
      </trkpt>
      <trkpt lat="44.08398" lon="6.26128">
        <ele>842</ele>
        <time>2014-08-18T12:15:53Z</time>
      </trkpt>
      <trkpt lat="44.08399" lon="6.26136">
        <ele>843</ele>
        <time>2014-08-18T12:15:55Z</time>
      </trkpt>
      <trkpt lat="44.08397" lon="6.26143">
        <ele>843</ele>
        <time>2014-08-18T12:16:03Z</time>
      </trkpt>
      <trkpt lat="44.08393" lon="6.26146">
        <ele>840</ele>
        <time>2014-08-18T12:16:07Z</time>
      </trkpt>
      <trkpt lat="44.08389" lon="6.26149">
        <ele>841</ele>
        <time>2014-08-18T12:16:11Z</time>
      </trkpt>
      <trkpt lat="44.08391" lon="6.26149">
        <ele>840</ele>
        <time>2014-08-18T12:16:31Z</time>
      </trkpt>
      <trkpt lat="44.08392" lon="6.26146">
        <ele>836</ele>
        <time>2014-08-18T12:16:49Z</time>
      </trkpt>
      <trkpt lat="44.08382" lon="6.26161">
        <ele>841</ele>
        <time>2014-08-18T12:17:31Z</time>
      </trkpt>
      <trkpt lat="44.08379" lon="6.26167">
        <ele>831</ele>
        <time>2014-08-18T12:17:35Z</time>
      </trkpt>
      <trkpt lat="44.08376" lon="6.26173">
        <ele>829</ele>
        <time>2014-08-18T12:17:42Z</time>
      </trkpt>
      <trkpt lat="44.08373" lon="6.26178">
        <ele>827</ele>
        <time>2014-08-18T12:17:47Z</time>
      </trkpt>
      <trkpt lat="44.08369" lon="6.26183">
        <ele>825</ele>
        <time>2014-08-18T12:17:55Z</time>
      </trkpt>
      <trkpt lat="44.08366" lon="6.26188">
        <ele>824</ele>
        <time>2014-08-18T12:18:01Z</time>
      </trkpt>
      <trkpt lat="44.08362" lon="6.26192">
        <ele>820</ele>
        <time>2014-08-18T12:18:09Z</time>
      </trkpt>
      <trkpt lat="44.08358" lon="6.26196">
        <ele>816</ele>
        <time>2014-08-18T12:18:17Z</time>
      </trkpt>
      <trkpt lat="44.08354" lon="6.262">
        <ele>815</ele>
        <time>2014-08-18T12:18:24Z</time>
      </trkpt>
      <trkpt lat="44.08349" lon="6.26203">
        <ele>813</ele>
        <time>2014-08-18T12:18:31Z</time>
      </trkpt>
      <trkpt lat="44.08345" lon="6.26206">
        <ele>813</ele>
        <time>2014-08-18T12:18:36Z</time>
      </trkpt>
      <trkpt lat="44.08341" lon="6.2621">
        <ele>812</ele>
        <time>2014-08-18T12:18:41Z</time>
      </trkpt>
      <trkpt lat="44.08336" lon="6.26212">
        <ele>809</ele>
        <time>2014-08-18T12:18:47Z</time>
      </trkpt>
      <trkpt lat="44.08331" lon="6.26216">
        <ele>808</ele>
        <time>2014-08-18T12:18:54Z</time>
      </trkpt>
      <trkpt lat="44.08325" lon="6.26219">
        <ele>808</ele>
        <time>2014-08-18T12:18:57Z</time>
      </trkpt>
      <trkpt lat="44.08321" lon="6.26222">
        <ele>807</ele>
        <time>2014-08-18T12:19:01Z</time>
      </trkpt>
      <trkpt lat="44.08317" lon="6.26227">
        <ele>806</ele>
        <time>2014-08-18T12:19:10Z</time>
      </trkpt>
      <trkpt lat="44.08313" lon="6.26232">
        <ele>807</ele>
        <time>2014-08-18T12:19:15Z</time>
      </trkpt>
      <trkpt lat="44.0831" lon="6.26237">
        <ele>808</ele>
        <time>2014-08-18T12:19:18Z</time>
      </trkpt>
      <trkpt lat="44.08305" lon="6.26242">
        <ele>808</ele>
        <time>2014-08-18T12:19:22Z</time>
      </trkpt>
      <trkpt lat="44.08302" lon="6.26246">
        <ele>810</ele>
        <time>2014-08-18T12:19:25Z</time>
      </trkpt>
      <trkpt lat="44.08297" lon="6.2625">
        <ele>811</ele>
        <time>2014-08-18T12:19:34Z</time>
      </trkpt>
      <trkpt lat="44.08292" lon="6.26254">
        <ele>812</ele>
        <time>2014-08-18T12:19:37Z</time>
      </trkpt>
      <trkpt lat="44.08288" lon="6.26258">
        <ele>809</ele>
        <time>2014-08-18T12:19:44Z</time>
      </trkpt>
      <trkpt lat="44.08284" lon="6.2626">
        <ele>809</ele>
        <time>2014-08-18T12:19:48Z</time>
      </trkpt>
      <trkpt lat="44.0828" lon="6.26264">
        <ele>810</ele>
        <time>2014-08-18T12:19:53Z</time>
      </trkpt>
      <trkpt lat="44.08284" lon="6.26265">
        <ele>809</ele>
        <time>2014-08-18T12:20:04Z</time>
      </trkpt>
      <trkpt lat="44.0828" lon="6.26266">
        <ele>810</ele>
        <time>2014-08-18T12:20:09Z</time>
      </trkpt>
      <trkpt lat="44.08277" lon="6.26273">
        <ele>809</ele>
        <time>2014-08-18T12:20:19Z</time>
      </trkpt>
      <trkpt lat="44.08272" lon="6.26275">
        <ele>813</ele>
        <time>2014-08-18T12:20:27Z</time>
      </trkpt>
      <trkpt lat="44.08267" lon="6.26278">
        <ele>815</ele>
        <time>2014-08-18T12:20:50Z</time>
      </trkpt>
      <trkpt lat="44.08262" lon="6.2628">
        <ele>815</ele>
        <time>2014-08-18T12:20:54Z</time>
      </trkpt>
      <trkpt lat="44.08256" lon="6.26281">
        <ele>816</ele>
        <time>2014-08-18T12:20:58Z</time>
      </trkpt>
      <trkpt lat="44.08252" lon="6.26284">
        <ele>812</ele>
        <time>2014-08-18T12:21:06Z</time>
      </trkpt>
      <trkpt lat="44.08247" lon="6.26286">
        <ele>810</ele>
        <time>2014-08-18T12:21:11Z</time>
      </trkpt>
      <trkpt lat="44.08243" lon="6.2629">
        <ele>802</ele>
        <time>2014-08-18T12:21:14Z</time>
      </trkpt>
      <trkpt lat="44.08239" lon="6.26294">
        <ele>801</ele>
        <time>2014-08-18T12:21:17Z</time>
      </trkpt>
      <trkpt lat="44.08234" lon="6.26297">
        <ele>802</ele>
        <time>2014-08-18T12:21:20Z</time>
      </trkpt>
      <trkpt lat="44.08229" lon="6.263">
        <ele>802</ele>
        <time>2014-08-18T12:21:23Z</time>
      </trkpt>
      <trkpt lat="44.08224" lon="6.26303">
        <ele>804</ele>
        <time>2014-08-18T12:21:26Z</time>
      </trkpt>
      <trkpt lat="44.08218" lon="6.26305">
        <ele>803</ele>
        <time>2014-08-18T12:21:30Z</time>
      </trkpt>
      <trkpt lat="44.08213" lon="6.26305">
        <ele>804</ele>
        <time>2014-08-18T12:21:34Z</time>
      </trkpt>
      <trkpt lat="44.08208" lon="6.26307">
        <ele>804</ele>
        <time>2014-08-18T12:21:38Z</time>
      </trkpt>
      <trkpt lat="44.08205" lon="6.26312">
        <ele>804</ele>
        <time>2014-08-18T12:21:43Z</time>
      </trkpt>
      <trkpt lat="44.08201" lon="6.26318">
        <ele>806</ele>
        <time>2014-08-18T12:21:48Z</time>
      </trkpt>
      <trkpt lat="44.08181" lon="6.26364">
        <ele>804</ele>
        <time>2014-08-18T12:22:21Z</time>
      </trkpt>
      <trkpt lat="44.08183" lon="6.2637">
        <ele>805</ele>
        <time>2014-08-18T12:22:30Z</time>
      </trkpt>
      <trkpt lat="44.08182" lon="6.26377">
        <ele>803</ele>
        <time>2014-08-18T12:22:36Z</time>
      </trkpt>
      <trkpt lat="44.08179" lon="6.26382">
        <ele>802</ele>
        <time>2014-08-18T12:22:45Z</time>
      </trkpt>
      <trkpt lat="44.08176" lon="6.26387">
        <ele>798</ele>
        <time>2014-08-18T12:22:54Z</time>
      </trkpt>
      <trkpt lat="44.08173" lon="6.26393">
        <ele>797</ele>
        <time>2014-08-18T12:23:00Z</time>
      </trkpt>
      <trkpt lat="44.08171" lon="6.26399">
        <ele>799</ele>
        <time>2014-08-18T12:23:05Z</time>
      </trkpt>
      <trkpt lat="44.0817" lon="6.26406">
        <ele>796</ele>
        <time>2014-08-18T12:23:11Z</time>
      </trkpt>
      <trkpt lat="44.08168" lon="6.26412">
        <ele>795</ele>
        <time>2014-08-18T12:23:17Z</time>
      </trkpt>
      <trkpt lat="44.08167" lon="6.26418">
        <ele>794</ele>
        <time>2014-08-18T12:23:23Z</time>
      </trkpt>
      <trkpt lat="44.08166" lon="6.26425">
        <ele>793</ele>
        <time>2014-08-18T12:23:29Z</time>
      </trkpt>
      <trkpt lat="44.08164" lon="6.26431">
        <ele>792</ele>
        <time>2014-08-18T12:23:35Z</time>
      </trkpt>
      <trkpt lat="44.08162" lon="6.26437">
        <ele>791</ele>
        <time>2014-08-18T12:23:41Z</time>
      </trkpt>
      <trkpt lat="44.08161" lon="6.26443">
        <ele>789</ele>
        <time>2014-08-18T12:23:47Z</time>
      </trkpt>
      <trkpt lat="44.08158" lon="6.26449">
        <ele>788</ele>
        <time>2014-08-18T12:23:54Z</time>
      </trkpt>
      <trkpt lat="44.08156" lon="6.26456">
        <ele>789</ele>
        <time>2014-08-18T12:24:01Z</time>
      </trkpt>
      <trkpt lat="44.08154" lon="6.26463">
        <ele>786</ele>
        <time>2014-08-18T12:24:22Z</time>
      </trkpt>
      <trkpt lat="44.08153" lon="6.2647">
        <ele>786</ele>
        <time>2014-08-18T12:24:27Z</time>
      </trkpt>
      <trkpt lat="44.08154" lon="6.26477">
        <ele>785</ele>
        <time>2014-08-18T12:24:32Z</time>
      </trkpt>
      <trkpt lat="44.08154" lon="6.26483">
        <ele>784</ele>
        <time>2014-08-18T12:24:37Z</time>
      </trkpt>
      <trkpt lat="44.08153" lon="6.2649">
        <ele>783</ele>
        <time>2014-08-18T12:24:42Z</time>
      </trkpt>
      <trkpt lat="44.08153" lon="6.26497">
        <ele>784</ele>
        <time>2014-08-18T12:24:47Z</time>
      </trkpt>
      <trkpt lat="44.08152" lon="6.26504">
        <ele>781</ele>
        <time>2014-08-18T12:24:52Z</time>
      </trkpt>
      <trkpt lat="44.08152" lon="6.2651">
        <ele>781</ele>
        <time>2014-08-18T12:24:56Z</time>
      </trkpt>
      <trkpt lat="44.08152" lon="6.26517">
        <ele>780</ele>
        <time>2014-08-18T12:25:00Z</time>
      </trkpt>
      <trkpt lat="44.08151" lon="6.26523">
        <ele>780</ele>
        <time>2014-08-18T12:25:04Z</time>
      </trkpt>
      <trkpt lat="44.0815" lon="6.2653">
        <ele>781</ele>
        <time>2014-08-18T12:25:09Z</time>
      </trkpt>
      <trkpt lat="44.08151" lon="6.26536">
        <ele>780</ele>
        <time>2014-08-18T12:25:15Z</time>
      </trkpt>
      <trkpt lat="44.0815" lon="6.2654">
        <ele>777</ele>
        <time>2014-08-18T12:25:51Z</time>
      </trkpt>
      <trkpt lat="44.0815" lon="6.26543">
        <ele>777</ele>
        <time>2014-08-18T12:25:53Z</time>
      </trkpt>
      <trkpt lat="44.0815" lon="6.2655">
        <ele>776</ele>
        <time>2014-08-18T12:26:20Z</time>
      </trkpt>
      <trkpt lat="44.08149" lon="6.26558">
        <ele>773</ele>
        <time>2014-08-18T12:26:25Z</time>
      </trkpt>
      <trkpt lat="44.08148" lon="6.26565">
        <ele>774</ele>
        <time>2014-08-18T12:26:29Z</time>
      </trkpt>
      <trkpt lat="44.08147" lon="6.26573">
        <ele>773</ele>
        <time>2014-08-18T12:26:34Z</time>
      </trkpt>
      <trkpt lat="44.08146" lon="6.2658">
        <ele>772</ele>
        <time>2014-08-18T12:26:38Z</time>
      </trkpt>
      <trkpt lat="44.08146" lon="6.26587">
        <ele>774</ele>
        <time>2014-08-18T12:26:42Z</time>
      </trkpt>
      <trkpt lat="44.08146" lon="6.26593">
        <ele>771</ele>
        <time>2014-08-18T12:26:46Z</time>
      </trkpt>
      <trkpt lat="44.08145" lon="6.266">
        <ele>770</ele>
        <time>2014-08-18T12:26:50Z</time>
      </trkpt>
      <trkpt lat="44.0814" lon="6.26642">
        <ele>758</ele>
        <time>2014-08-18T12:27:22Z</time>
      </trkpt>
      <trkpt lat="44.08141" lon="6.26649">
        <ele>761</ele>
        <time>2014-08-18T12:27:26Z</time>
      </trkpt>
      <trkpt lat="44.08137" lon="6.26656">
        <ele>767</ele>
        <time>2014-08-18T12:27:31Z</time>
      </trkpt>
      <trkpt lat="44.08134" lon="6.26661">
        <ele>773</ele>
        <time>2014-08-18T12:27:35Z</time>
      </trkpt>
      <trkpt lat="44.08131" lon="6.26667">
        <ele>771</ele>
        <time>2014-08-18T12:27:39Z</time>
      </trkpt>
      <trkpt lat="44.08131" lon="6.26674">
        <ele>763</ele>
        <time>2014-08-18T12:27:46Z</time>
      </trkpt>
      <trkpt lat="44.0813" lon="6.2668">
        <ele>764</ele>
        <time>2014-08-18T12:27:50Z</time>
      </trkpt>
      <trkpt lat="44.08128" lon="6.26686">
        <ele>765</ele>
        <time>2014-08-18T12:27:54Z</time>
      </trkpt>
      <trkpt lat="44.08126" lon="6.26693">
        <ele>764</ele>
        <time>2014-08-18T12:27:58Z</time>
      </trkpt>
      <trkpt lat="44.08124" lon="6.26699">
        <ele>762</ele>
        <time>2014-08-18T12:28:03Z</time>
      </trkpt>
      <trkpt lat="44.08123" lon="6.26706">
        <ele>761</ele>
        <time>2014-08-18T12:28:08Z</time>
      </trkpt>
      <trkpt lat="44.0812" lon="6.26713">
        <ele>758</ele>
        <time>2014-08-18T12:28:13Z</time>
      </trkpt>
      <trkpt lat="44.08118" lon="6.26718">
        <ele>758</ele>
        <time>2014-08-18T12:28:18Z</time>
      </trkpt>
      <trkpt lat="44.08116" lon="6.26724">
        <ele>757</ele>
        <time>2014-08-18T12:28:22Z</time>
      </trkpt>
      <trkpt lat="44.08114" lon="6.26731">
        <ele>757</ele>
        <time>2014-08-18T12:28:26Z</time>
      </trkpt>
      <trkpt lat="44.08112" lon="6.26737">
        <ele>755</ele>
        <time>2014-08-18T12:28:31Z</time>
      </trkpt>
      <trkpt lat="44.0811" lon="6.26744">
        <ele>756</ele>
        <time>2014-08-18T12:28:36Z</time>
      </trkpt>
      <trkpt lat="44.08107" lon="6.26751">
        <ele>756</ele>
        <time>2014-08-18T12:28:41Z</time>
      </trkpt>
      <trkpt lat="44.08104" lon="6.26757">
        <ele>756</ele>
        <time>2014-08-18T12:28:46Z</time>
      </trkpt>
      <trkpt lat="44.08101" lon="6.26764">
        <ele>756</ele>
        <time>2014-08-18T12:28:50Z</time>
      </trkpt>
      <trkpt lat="44.08099" lon="6.2677">
        <ele>753</ele>
        <time>2014-08-18T12:28:56Z</time>
      </trkpt>
      <trkpt lat="44.08096" lon="6.26775">
        <ele>753</ele>
        <time>2014-08-18T12:29:00Z</time>
      </trkpt>
      <trkpt lat="44.08093" lon="6.26781">
        <ele>753</ele>
        <time>2014-08-18T12:29:04Z</time>
      </trkpt>
      <trkpt lat="44.0809" lon="6.26788">
        <ele>754</ele>
        <time>2014-08-18T12:29:08Z</time>
      </trkpt>
      <trkpt lat="44.08088" lon="6.26794">
        <ele>756</ele>
        <time>2014-08-18T12:29:12Z</time>
      </trkpt>
      <trkpt lat="44.08086" lon="6.26801">
        <ele>754</ele>
        <time>2014-08-18T12:29:17Z</time>
      </trkpt>
      <trkpt lat="44.08086" lon="6.26808">
        <ele>754</ele>
        <time>2014-08-18T12:29:22Z</time>
      </trkpt>
      <trkpt lat="44.08086" lon="6.26815">
        <ele>756</ele>
        <time>2014-08-18T12:29:26Z</time>
      </trkpt>
      <trkpt lat="44.08084" lon="6.26821">
        <ele>755</ele>
        <time>2014-08-18T12:29:30Z</time>
      </trkpt>
      <trkpt lat="44.08083" lon="6.26827">
        <ele>751</ele>
        <time>2014-08-18T12:29:36Z</time>
      </trkpt>
      <trkpt lat="44.08085" lon="6.26834">
        <ele>748</ele>
        <time>2014-08-18T12:29:42Z</time>
      </trkpt>
      <trkpt lat="44.08086" lon="6.26841">
        <ele>744</ele>
        <time>2014-08-18T12:29:48Z</time>
      </trkpt>
      <trkpt lat="44.08087" lon="6.26847">
        <ele>743</ele>
        <time>2014-08-18T12:29:53Z</time>
      </trkpt>
      <trkpt lat="44.08086" lon="6.26854">
        <ele>741</ele>
        <time>2014-08-18T12:29:58Z</time>
      </trkpt>
      <trkpt lat="44.08088" lon="6.2686">
        <ele>738</ele>
        <time>2014-08-18T12:30:05Z</time>
      </trkpt>
      <trkpt lat="44.0809" lon="6.26866">
        <ele>738</ele>
        <time>2014-08-18T12:30:11Z</time>
      </trkpt>
      <trkpt lat="44.08088" lon="6.26874">
        <ele>737</ele>
        <time>2014-08-18T12:30:16Z</time>
      </trkpt>
      <trkpt lat="44.08086" lon="6.2688">
        <ele>737</ele>
        <time>2014-08-18T12:30:19Z</time>
      </trkpt>
      <trkpt lat="44.08086" lon="6.26886">
        <ele>736</ele>
        <time>2014-08-18T12:30:23Z</time>
      </trkpt>
      <trkpt lat="44.08086" lon="6.26893">
        <ele>736</ele>
        <time>2014-08-18T12:30:28Z</time>
      </trkpt>
      <trkpt lat="44.08085" lon="6.26899">
        <ele>738</ele>
        <time>2014-08-18T12:30:45Z</time>
      </trkpt>
      <trkpt lat="44.08083" lon="6.26905">
        <ele>741</ele>
        <time>2014-08-18T12:30:52Z</time>
      </trkpt>
      <trkpt lat="44.08082" lon="6.26912">
        <ele>742</ele>
        <time>2014-08-18T12:30:54Z</time>
      </trkpt>
      <trkpt lat="44.08081" lon="6.26919">
        <ele>746</ele>
        <time>2014-08-18T12:30:58Z</time>
      </trkpt>
      <trkpt lat="44.0808" lon="6.26926">
        <ele>745</ele>
        <time>2014-08-18T12:31:00Z</time>
      </trkpt>
      <trkpt lat="44.0808" lon="6.26933">
        <ele>745</ele>
        <time>2014-08-18T12:31:03Z</time>
      </trkpt>
      <trkpt lat="44.08079" lon="6.26939">
        <ele>744</ele>
        <time>2014-08-18T12:31:13Z</time>
      </trkpt>
      <trkpt lat="44.08081" lon="6.26945">
        <ele>744</ele>
        <time>2014-08-18T12:31:19Z</time>
      </trkpt>
      <trkpt lat="44.08083" lon="6.26953">
        <ele>746</ele>
        <time>2014-08-18T12:31:22Z</time>
      </trkpt>
      <trkpt lat="44.08083" lon="6.2696">
        <ele>748</ele>
        <time>2014-08-18T12:31:25Z</time>
      </trkpt>
      <trkpt lat="44.08083" lon="6.26968">
        <ele>750</ele>
        <time>2014-08-18T12:31:28Z</time>
      </trkpt>
      <trkpt lat="44.08084" lon="6.26975">
        <ele>751</ele>
        <time>2014-08-18T12:31:31Z</time>
      </trkpt>
      <trkpt lat="44.08085" lon="6.26981">
        <ele>751</ele>
        <time>2014-08-18T12:31:36Z</time>
      </trkpt>
      <trkpt lat="44.08086" lon="6.26988">
        <ele>753</ele>
        <time>2014-08-18T12:32:25Z</time>
      </trkpt>
      <trkpt lat="44.08086" lon="6.26997">
        <ele>758</ele>
        <time>2014-08-18T12:32:29Z</time>
      </trkpt>
      <trkpt lat="44.08088" lon="6.27006">
        <ele>759</ele>
        <time>2014-08-18T12:32:32Z</time>
      </trkpt>
      <trkpt lat="44.08088" lon="6.27013">
        <ele>758</ele>
        <time>2014-08-18T12:32:35Z</time>
      </trkpt>
      <trkpt lat="44.08087" lon="6.27021">
        <ele>757</ele>
        <time>2014-08-18T12:32:40Z</time>
      </trkpt>
      <trkpt lat="44.08086" lon="6.27027">
        <ele>757</ele>
        <time>2014-08-18T12:32:44Z</time>
      </trkpt>
      <trkpt lat="44.08089" lon="6.27033">
        <ele>758</ele>
        <time>2014-08-18T12:32:47Z</time>
      </trkpt>
      <trkpt lat="44.08091" lon="6.27034">
        <ele>759</ele>
        <time>2014-08-18T12:33:21Z</time>
      </trkpt>
      <trkpt lat="44.0808" lon="6.27047">
        <ele>762</ele>
        <time>2014-08-18T12:38:25Z</time>
      </trkpt>
      <trkpt lat="44.08077" lon="6.27052">
        <ele>762</ele>
        <time>2014-08-18T12:38:54Z</time>
      </trkpt>
      <trkpt lat="44.08075" lon="6.27059">
        <ele>757</ele>
        <time>2014-08-18T12:38:58Z</time>
      </trkpt>
      <trkpt lat="44.08072" lon="6.27064">
        <ele>758</ele>
        <time>2014-08-18T12:39:01Z</time>
      </trkpt>
      <trkpt lat="44.08068" lon="6.27069">
        <ele>759</ele>
        <time>2014-08-18T12:39:04Z</time>
      </trkpt>
      <trkpt lat="44.08065" lon="6.27074">
        <ele>758</ele>
        <time>2014-08-18T12:39:07Z</time>
      </trkpt>
      <trkpt lat="44.08061" lon="6.27079">
        <ele>757</ele>
        <time>2014-08-18T12:39:10Z</time>
      </trkpt>
      <trkpt lat="44.08058" lon="6.27083">
        <ele>757</ele>
        <time>2014-08-18T12:39:13Z</time>
      </trkpt>
      <trkpt lat="44.08054" lon="6.27087">
        <ele>756</ele>
        <time>2014-08-18T12:39:20Z</time>
      </trkpt>
      <trkpt lat="44.08051" lon="6.27093">
        <ele>757</ele>
        <time>2014-08-18T12:39:24Z</time>
      </trkpt>
      <trkpt lat="44.08047" lon="6.27098">
        <ele>757</ele>
        <time>2014-08-18T12:39:27Z</time>
      </trkpt>
      <trkpt lat="44.08044" lon="6.27103">
        <ele>757</ele>
        <time>2014-08-18T12:39:30Z</time>
      </trkpt>
      <trkpt lat="44.08041" lon="6.27109">
        <ele>757</ele>
        <time>2014-08-18T12:39:34Z</time>
      </trkpt>
      <trkpt lat="44.08038" lon="6.27115">
        <ele>757</ele>
        <time>2014-08-18T12:39:38Z</time>
      </trkpt>
      <trkpt lat="44.08034" lon="6.27122">
        <ele>759</ele>
        <time>2014-08-18T12:39:42Z</time>
      </trkpt>
      <trkpt lat="44.08031" lon="6.27127">
        <ele>760</ele>
        <time>2014-08-18T12:39:46Z</time>
      </trkpt>
      <trkpt lat="44.08027" lon="6.27132">
        <ele>759</ele>
        <time>2014-08-18T12:39:50Z</time>
      </trkpt>
      <trkpt lat="44.08022" lon="6.27136">
        <ele>757</ele>
        <time>2014-08-18T12:39:55Z</time>
      </trkpt>
      <trkpt lat="44.08019" lon="6.27139">
        <ele>755</ele>
        <time>2014-08-18T12:39:59Z</time>
      </trkpt>
      <trkpt lat="44.08014" lon="6.27143">
        <ele>757</ele>
        <time>2014-08-18T12:40:03Z</time>
      </trkpt>
      <trkpt lat="44.08009" lon="6.27145">
        <ele>756</ele>
        <time>2014-08-18T12:40:07Z</time>
      </trkpt>
      <trkpt lat="44.08006" lon="6.2715">
        <ele>753</ele>
        <time>2014-08-18T12:40:11Z</time>
      </trkpt>
      <trkpt lat="44.08002" lon="6.27154">
        <ele>754</ele>
        <time>2014-08-18T12:40:14Z</time>
      </trkpt>
      <trkpt lat="44.07998" lon="6.27157">
        <ele>755</ele>
        <time>2014-08-18T12:40:17Z</time>
      </trkpt>
      <trkpt lat="44.07993" lon="6.27159">
        <ele>755</ele>
        <time>2014-08-18T12:40:21Z</time>
      </trkpt>
      <trkpt lat="44.07988" lon="6.27159">
        <ele>757</ele>
        <time>2014-08-18T12:40:25Z</time>
      </trkpt>
      <trkpt lat="44.07982" lon="6.27162">
        <ele>757</ele>
        <time>2014-08-18T12:40:29Z</time>
      </trkpt>
      <trkpt lat="44.07977" lon="6.27165">
        <ele>758</ele>
        <time>2014-08-18T12:40:33Z</time>
      </trkpt>
      <trkpt lat="44.07972" lon="6.27168">
        <ele>757</ele>
        <time>2014-08-18T12:40:37Z</time>
      </trkpt>
      <trkpt lat="44.07966" lon="6.27169">
        <ele>756</ele>
        <time>2014-08-18T12:40:41Z</time>
      </trkpt>
      <trkpt lat="44.07961" lon="6.2717">
        <ele>755</ele>
        <time>2014-08-18T12:40:45Z</time>
      </trkpt>
      <trkpt lat="44.07957" lon="6.27174">
        <ele>755</ele>
        <time>2014-08-18T12:40:50Z</time>
      </trkpt>
      <trkpt lat="44.07952" lon="6.27178">
        <ele>751</ele>
        <time>2014-08-18T12:40:55Z</time>
      </trkpt>
      <trkpt lat="44.07948" lon="6.27181">
        <ele>751</ele>
        <time>2014-08-18T12:41:00Z</time>
      </trkpt>
      <trkpt lat="44.07943" lon="6.27185">
        <ele>751</ele>
        <time>2014-08-18T12:41:04Z</time>
      </trkpt>
      <trkpt lat="44.07938" lon="6.27188">
        <ele>750</ele>
        <time>2014-08-18T12:41:08Z</time>
      </trkpt>
      <trkpt lat="44.07933" lon="6.27191">
        <ele>747</ele>
        <time>2014-08-18T12:41:14Z</time>
      </trkpt>
      <trkpt lat="44.07929" lon="6.27194">
        <ele>745</ele>
        <time>2014-08-18T12:41:19Z</time>
      </trkpt>
      <trkpt lat="44.07925" lon="6.27197">
        <ele>747</ele>
        <time>2014-08-18T12:41:24Z</time>
      </trkpt>
      <trkpt lat="44.0792" lon="6.272">
        <ele>747</ele>
        <time>2014-08-18T12:41:28Z</time>
      </trkpt>
      <trkpt lat="44.07915" lon="6.27202">
        <ele>748</ele>
        <time>2014-08-18T12:41:32Z</time>
      </trkpt>
      <trkpt lat="44.0791" lon="6.27202">
        <ele>748</ele>
        <time>2014-08-18T12:41:42Z</time>
      </trkpt>
      <trkpt lat="44.07847" lon="6.27241">
        <ele>736</ele>
        <time>2014-08-18T12:42:25Z</time>
      </trkpt>
      <trkpt lat="44.07845" lon="6.27236">
        <ele>738</ele>
        <time>2014-08-18T12:42:29Z</time>
      </trkpt>
      <trkpt lat="44.0784" lon="6.27233">
        <ele>739</ele>
        <time>2014-08-18T12:42:34Z</time>
      </trkpt>
      <trkpt lat="44.07838" lon="6.27227">
        <ele>738</ele>
        <time>2014-08-18T12:42:43Z</time>
      </trkpt>
      <trkpt lat="44.07835" lon="6.27224">
        <ele>739</ele>
        <time>2014-08-18T12:43:01Z</time>
      </trkpt>
      <trkpt lat="44.0783" lon="6.27225">
        <ele>737</ele>
        <time>2014-08-18T12:43:06Z</time>
      </trkpt>
      <trkpt lat="44.07825" lon="6.27224">
        <ele>737</ele>
        <time>2014-08-18T12:43:09Z</time>
      </trkpt>
      <trkpt lat="44.07819" lon="6.27223">
        <ele>736</ele>
        <time>2014-08-18T12:43:12Z</time>
      </trkpt>
      <trkpt lat="44.07817" lon="6.27217">
        <ele>738</ele>
        <time>2014-08-18T12:43:21Z</time>
      </trkpt>
      <trkpt lat="44.07818" lon="6.27217">
        <ele>738</ele>
        <time>2014-08-18T12:44:07Z</time>
      </trkpt>
      <trkpt lat="44.07806" lon="6.27193">
        <ele>732</ele>
        <time>2014-08-18T12:45:38Z</time>
      </trkpt>
      <trkpt lat="44.07803" lon="6.27188">
        <ele>733</ele>
        <time>2014-08-18T12:45:41Z</time>
      </trkpt>
      <trkpt lat="44.078" lon="6.27183">
        <ele>733</ele>
        <time>2014-08-18T12:45:44Z</time>
      </trkpt>
      <trkpt lat="44.07797" lon="6.27178">
        <ele>731</ele>
        <time>2014-08-18T12:45:48Z</time>
      </trkpt>
      <trkpt lat="44.07793" lon="6.27174">
        <ele>731</ele>
        <time>2014-08-18T12:45:57Z</time>
      </trkpt>
      <trkpt lat="44.0779" lon="6.27169">
        <ele>729</ele>
        <time>2014-08-18T12:46:17Z</time>
      </trkpt>
      <trkpt lat="44.07787" lon="6.27164">
        <ele>729</ele>
        <time>2014-08-18T12:46:31Z</time>
      </trkpt>
      <trkpt lat="44.07785" lon="6.27158">
        <ele>732</ele>
        <time>2014-08-18T12:47:07Z</time>
      </trkpt>
      <trkpt lat="44.07785" lon="6.27152">
        <ele>732</ele>
        <time>2014-08-18T12:47:15Z</time>
      </trkpt>
      <trkpt lat="44.07782" lon="6.27148">
        <ele>726</ele>
        <time>2014-08-18T12:47:53Z</time>
      </trkpt>
      <trkpt lat="44.07769" lon="6.2712">
        <ele>717</ele>
        <time>2014-08-18T12:49:13Z</time>
      </trkpt>
      <trkpt lat="44.07764" lon="6.27116">
        <ele>713</ele>
        <time>2014-08-18T12:49:20Z</time>
      </trkpt>
      <trkpt lat="44.07761" lon="6.27112">
        <ele>713</ele>
        <time>2014-08-18T12:49:25Z</time>
      </trkpt>
      <trkpt lat="44.07756" lon="6.27108">
        <ele>707</ele>
        <time>2014-08-18T12:49:32Z</time>
      </trkpt>
      <trkpt lat="44.07753" lon="6.27103">
        <ele>709</ele>
        <time>2014-08-18T12:49:37Z</time>
      </trkpt>
      <trkpt lat="44.0775" lon="6.27097">
        <ele>709</ele>
        <time>2014-08-18T12:49:42Z</time>
      </trkpt>
      <trkpt lat="44.07748" lon="6.2709">
        <ele>711</ele>
        <time>2014-08-18T12:49:47Z</time>
      </trkpt>
      <trkpt lat="44.07746" lon="6.27084">
        <ele>709</ele>
        <time>2014-08-18T12:49:56Z</time>
      </trkpt>
      <trkpt lat="44.07743" lon="6.27079">
        <ele>706</ele>
        <time>2014-08-18T12:50:01Z</time>
      </trkpt>
      <trkpt lat="44.07741" lon="6.27073">
        <ele>706</ele>
        <time>2014-08-18T12:50:12Z</time>
      </trkpt>
      <trkpt lat="44.07737" lon="6.27068">
        <ele>703</ele>
        <time>2014-08-18T12:50:19Z</time>
      </trkpt>
      <trkpt lat="44.07734" lon="6.27063">
        <ele>703</ele>
        <time>2014-08-18T12:50:25Z</time>
      </trkpt>
      <trkpt lat="44.07733" lon="6.27057">
        <ele>703</ele>
        <time>2014-08-18T12:50:31Z</time>
      </trkpt>
      <trkpt lat="44.07733" lon="6.2705">
        <ele>701</ele>
        <time>2014-08-18T12:50:41Z</time>
      </trkpt>
      <trkpt lat="44.07738" lon="6.27049">
        <ele>700</ele>
        <time>2014-08-18T12:50:48Z</time>
      </trkpt>
      <trkpt lat="44.07742" lon="6.27053">
        <ele>697</ele>
        <time>2014-08-18T12:50:54Z</time>
      </trkpt>
    </trkseg>
  </trk>
</gpx>